EST,Max TemperatureF,Mean TemperatureF,Min TemperatureF,Max Dew PointF,MeanDew PointF,Min DewpointF,Max Humidity, Mean Humidity, Min Humidity, Max Sea Level PressureIn, Mean Sea Level PressureIn, Min Sea Level PressureIn, Max VisibilityMiles, Mean VisibilityMiles, Min VisibilityMiles, Max Wind SpeedMPH, Mean Wind SpeedMPH, Max Gust SpeedMPH,PrecipitationIn, CloudCover, Events, WindDirDegrees
2012-11-1,57,46,33,32,28,19,75,46,25,29.92,29.86,29.81,10,10,10,16,6,21,0.00,3,,276
2012-11-2,64,48,32,36,31,21,93,57,22,30.04,29.93,29.88,10,10,10,14,3,21,0.00,3,,273
2012-11-3,69,51,33,43,31,21,93,53,17,30.13,30.06,30.02,10,10,10,6,2,,0.00,0,,295
2012-11-4,60,52,44,45,38,34,93,60,39,30.09,30.04,30.00,10,10,10,8,4,,0.00,3,,37
2012-11-5,59,46,32,39,33,27,100,66,31,30.12,30.08,30.03,10,9,4,7,2,,0.00,1,,75
2012-11-6,41,37,33,36,33,30,100,86,70,30.17,30.09,29.99,10,8,2,7,3,,0.01,7,Rain-Snow,4
2012-11-7,50,41,32,39,35,32,100,85,62,30.01,29.95,29.88,10,8,2,7,1,,0.00,5,,258
2012-11-8,60,45,30,36,29,19,100,66,22,30.20,30.12,30.02,10,9,5,10,2,,0.00,0,,333
2012-11-9,68,48,28,34,30,25,100,68,20,30.32,30.26,30.20,10,9,5,6,1,,0.00,0,,274
2012-11-10,71,50,30,37,32,28,100,66,20,30.42,30.35,30.30,10,10,7,5,1,,0.00,0,,162
2012-11-11,69,50,30,52,39,30,100,71,30,30.51,30.44,30.41,10,9,5,9,2,20,0.00,2,,167
2012-11-12,66,60,51,61,57,52,100,86,68,30.43,30.31,30.21,10,9,4,10,4,16,0.36,7,Rain,153
2012-11-13,59,44,30,52,34,25,100,66,27,30.44,30.34,30.24,10,10,5,9,3,,0.04,2,Rain,4
2012-11-14,48,37,26,34,30,27,100,75,46,30.53,30.45,30.38,10,10,10,8,3,,0.00,2,,12
2012-11-15,50,40,30,34,30,28,100,75,47,30.39,30.34,30.27,10,10,7,8,4,,0.00,2,,29
2012-11-16,59,42,24,36,30,23,100,77,31,30.44,30.35,30.29,10,9,5,7,1,,0.00,0,,63
2012-11-17,55,42,30,32,27,19,100,64,25,30.54,30.49,30.44,10,10,7,8,4,,0.00,0,,13
2012-11-18,55,46,37,39,33,23,93,60,49,30.53,30.47,30.42,10,10,10,10,5,16,0.00,4,,14
2012-11-19,60,48,35,46,42,36,100,77,55,30.43,30.33,30.25,10,10,2,6,1,,0.00,5,,79
2012-11-20,60,46,33,45,39,34,100,85,42,30.26,30.17,30.09,10,7,0,6,1,,0.00,1,Fog,208
2012-11-21,64,47,30,39,33,30,100,75,30,30.23,30.18,30.14,10,7,0,7,1,,0.00,0,Fog,77
2012-11-22,62,45,28,37,32,28,100,74,27,30.32,30.25,30.20,10,9,5,6,1,,0.00,0,,166
2012-11-23,68,48,28,45,32,25,100,65,23,30.21,30.08,29.96,10,9,5,18,3,31,0.00,1,,275
2012-11-24,48,37,26,27,21,14,80,47,25,30.15,30.08,30.02,10,10,10,15,8,24,0.00,0,,320
2012-11-25,53,37,21,23,20,12,93,62,19,30.18,30.11,30.04,10,10,10,8,1,,0.00,0,,221
2012-11-26,64,44,24,32,25,19,93,57,20,30.23,30.17,30.11,10,10,10,7,1,,0.00,1,,158
2012-11-27,51,46,41,45,41,32,100,83,57,30.27,30.18,30.14,10,9,4,5,1,,0.02,7,Rain,6
2012-11-28,53,40,26,37,29,19,93,64,28,30.41,30.34,30.26,10,10,10,7,2,,0.00,2,,315
2012-11-29,53,37,21,34,27,21,100,76,38,30.49,30.43,30.37,10,10,7,6,0,,0.00,0,,233
2012-11-30,59,42,24,37,31,23,100,78,36,30.42,30.37,30.30,10,8,5,5,0,,0.00,0,,301